Time,TemperatureF,DewpointF,PressureIn,WindDirection,WindDirectionDegrees,WindSpeedMPH,WindSpeedGustMPH,Humidity,HourlyPrecipIn,Conditions,Clouds,dailyrainin,SoftwareType,DateUTC
2013-01-08 00:22:00,33.0,23.0,-100.00,West,281,6.0,24.0,66,0.00,,,0.00,,2013-01-08 07:22:00,
2013-01-08 00:32:00,33.0,23.0,-100.00,West,281,6.0,24.0,66,0.00,,,0.00,,2013-01-08 07:32:00,
2013-01-08 00:42:00,33.0,23.0,-100.00,West,281,6.0,24.0,66,0.00,,,0.00,,2013-01-08 07:42:00,
2013-01-08 00:52:00,33.0,23.0,-100.00,West,281,6.0,24.0,66,0.00,,,0.00,,2013-01-08 07:52:00,
2013-01-08 01:22:00,34.0,23.0,-100.00,West,259,8.0,15.0,64,0.00,,,0.00,,2013-01-08 08:22:00,
2013-01-08 01:32:00,34.0,23.0,-100.00,West,259,8.0,15.0,64,0.00,,,0.00,,2013-01-08 08:32:00,
2013-01-08 01:42:00,34.0,23.0,-100.00,West,259,8.0,15.0,64,0.00,,,0.00,,2013-01-08 08:42:00,
2013-01-08 01:52:00,34.0,23.0,-100.00,West,259,8.0,15.0,64,0.00,,,0.00,,2013-01-08 08:52:00,
2013-01-08 02:22:00,32.0,21.0,-100.00,SSW,197,6.0,19.0,63,0.00,,,0.00,,2013-01-08 09:22:00,
2013-01-08 02:32:00,32.0,21.0,-100.00,SSW,197,6.0,19.0,63,0.00,,,0.00,,2013-01-08 09:32:00,
2013-01-08 02:42:00,32.0,21.0,-100.00,SSW,197,6.0,19.0,63,0.00,,,0.00,,2013-01-08 09:42:00,
2013-01-08 02:52:00,32.0,21.0,-100.00,SSW,197,6.0,19.0,63,0.00,,,0.00,,2013-01-08 09:52:00,
2013-01-08 03:22:00,33.0,22.0,-100.00,North,359,6.0,21.0,64,0.00,,,0.00,,2013-01-08 10:22:00,
2013-01-08 03:32:00,33.0,22.0,-100.00,North,359,6.0,21.0,64,0.00,,,0.00,,2013-01-08 10:32:00,
2013-01-08 03:42:00,33.0,22.0,-100.00,North,359,6.0,21.0,64,0.00,,,0.00,,2013-01-08 10:42:00,
2013-01-08 03:52:00,33.0,22.0,-100.00,North,359,6.0,21.0,64,0.00,,,0.00,,2013-01-08 10:52:00,
2013-01-08 04:22:00,33.0,21.0,-100.00,North,3,6.0,19.0,62,0.00,,,0.00,,2013-01-08 11:22:00,
2013-01-08 04:32:00,33.0,21.0,-100.00,North,3,6.0,19.0,62,0.00,,,0.00,,2013-01-08 11:32:00,
2013-01-08 04:42:00,33.0,21.0,-100.00,North,3,6.0,19.0,62,0.00,,,0.00,,2013-01-08 11:42:00,
2013-01-08 04:53:00,33.0,21.0,-100.00,North,3,6.0,19.0,62,0.00,,,0.00,,2013-01-08 11:53:00,
2013-01-08 05:22:00,33.0,21.0,-100.00,SW,236,6.0,20.0,60,0.00,,,0.00,,2013-01-08 12:22:00,
2013-01-08 05:32:00,33.0,21.0,-100.00,SW,236,6.0,20.0,60,0.00,,,0.00,,2013-01-08 12:32:00,
2013-01-08 05:42:00,33.0,21.0,-100.00,SW,236,6.0,20.0,60,0.00,,,0.00,,2013-01-08 12:42:00,
2013-01-08 05:52:00,33.0,21.0,-100.00,SW,236,6.0,20.0,60,0.00,,,0.00,,2013-01-08 12:52:00,
2013-01-08 06:22:00,32.0,20.0,-100.00,NW,304,5.0,21.0,62,0.00,,,0.00,,2013-01-08 13:22:00,
2013-01-08 06:32:00,32.0,20.0,-100.00,NW,304,5.0,21.0,62,0.00,,,0.00,,2013-01-08 13:32:00,
2013-01-08 06:42:00,32.0,20.0,-100.00,NW,304,5.0,21.0,62,0.00,,,0.00,,2013-01-08 13:42:00,
2013-01-08 06:52:00,32.0,20.0,-100.00,NW,304,5.0,21.0,62,0.00,,,0.00,,2013-01-08 13:52:00,
2013-01-08 07:23:00,32.0,19.0,-100.00,SW,223,4.0,16.0,57,0.00,,,0.00,,2013-01-08 14:23:00,
2013-01-08 07:33:00,32.0,19.0,-100.00,SW,223,4.0,16.0,57,0.00,,,0.00,,2013-01-08 14:33:00,
2013-01-08 07:42:00,32.0,19.0,-100.00,SW,223,4.0,16.0,57,0.00,,,0.00,,2013-01-08 14:42:00,
2013-01-08 07:53:00,32.0,19.0,-100.00,SW,223,4.0,16.0,57,0.00,,,0.00,,2013-01-08 14:53:00,
2013-01-08 08:22:00,31.0,19.0,-100.00,NE,41,4.0,18.0,60,0.00,,,0.00,,2013-01-08 15:22:00,
2013-01-08 08:33:00,31.0,19.0,-100.00,NE,41,4.0,18.0,60,0.00,,,0.00,,2013-01-08 15:33:00,
2013-01-08 08:42:00,31.0,19.0,-100.00,NE,41,4.0,18.0,60,0.00,,,0.00,,2013-01-08 15:42:00,
2013-01-08 08:52:00,31.0,19.0,-100.00,NE,41,4.0,18.0,60,0.00,,,0.00,,2013-01-08 15:52:00,
2013-01-08 09:22:00,31.0,20.0,-100.00,SSW,198,4.0,15.0,63,0.00,,,0.00,,2013-01-08 16:22:00,
2013-01-08 09:33:00,31.0,20.0,-100.00,SSW,198,4.0,15.0,63,0.00,,,0.00,,2013-01-08 16:33:00,
2013-01-08 09:42:00,31.0,20.0,-100.00,SSW,198,4.0,15.0,63,0.00,,,0.00,,2013-01-08 16:42:00,
2013-01-08 09:52:00,31.0,20.0,-100.00,SSW,198,4.0,15.0,63,0.00,,,0.00,,2013-01-08 16:52:00,
2013-01-08 10:23:00,31.0,20.0,-100.00,NNE,33,6.0,16.0,62,0.00,,,0.00,,2013-01-08 17:23:00,
2013-01-08 10:33:00,31.0,20.0,-100.00,NNE,33,6.0,16.0,62,0.00,,,0.00,,2013-01-08 17:33:00,
2013-01-08 10:42:00,31.0,20.0,-100.00,NNE,33,6.0,16.0,62,0.00,,,0.00,,2013-01-08 17:42:00,
2013-01-08 10:53:00,31.0,20.0,-100.00,NNE,33,6.0,16.0,62,0.00,,,0.00,,2013-01-08 17:53:00,
2013-01-08 11:23:00,34.0,19.0,-100.00,West,265,4.0,15.0,53,0.00,,,0.00,,2013-01-08 18:23:00,
2013-01-08 11:33:00,34.0,19.0,-100.00,West,265,4.0,15.0,53,0.00,,,0.00,,2013-01-08 18:33:00,
2013-01-08 11:43:00,34.0,19.0,-100.00,West,265,4.0,15.0,53,0.00,,,0.00,,2013-01-08 18:43:00,
2013-01-08 11:52:00,34.0,19.0,-100.00,West,265,4.0,15.0,53,0.00,,,0.00,,2013-01-08 18:52:00,
2013-01-08 12:22:00,33.0,17.0,-100.00,NE,56,5.0,14.0,51,0.00,,,0.00,,2013-01-08 19:22:00,
2013-01-08 12:32:00,33.0,17.0,-100.00,NE,56,5.0,14.0,51,0.00,,,0.00,,2013-01-08 19:32:00,
2013-01-08 12:42:00,33.0,17.0,-100.00,NE,56,5.0,14.0,51,0.00,,,0.00,,2013-01-08 19:42:00,
2013-01-08 12:53:00,33.0,17.0,-100.00,NE,56,5.0,14.0,51,0.00,,,0.00,,2013-01-08 19:53:00,
2013-01-08 13:22:00,34.0,19.0,-100.00,West,259,4.0,11.0,53,0.00,,,0.00,,2013-01-08 20:22:00,
2013-01-08 13:33:00,34.0,19.0,-100.00,West,259,4.0,11.0,53,0.00,,,0.00,,2013-01-08 20:33:00,
2013-01-08 13:43:00,34.0,19.0,-100.00,West,259,4.0,11.0,53,0.00,,,0.00,,2013-01-08 20:43:00,
2013-01-08 13:53:00,34.0,19.0,-100.00,West,259,4.0,11.0,53,0.00,,,0.00,,2013-01-08 20:53:00,
2013-01-08 14:22:00,34.0,17.0,-100.00,South,179,4.0,12.0,50,0.00,,,0.00,,2013-01-08 21:22:00,
2013-01-08 14:33:00,34.0,17.0,-100.00,South,179,4.0,12.0,50,0.00,,,0.00,,2013-01-08 21:33:00,
2013-01-08 14:43:00,34.0,17.0,-100.00,South,179,4.0,12.0,50,0.00,,,0.00,,2013-01-08 21:43:00,
2013-01-08 14:53:00,34.0,17.0,-100.00,South,179,4.0,12.0,50,0.00,,,0.00,,2013-01-08 21:53:00,
2013-01-08 15:22:00,34.0,18.0,-100.00,West,266,4.0,14.0,52,0.00,,,0.00,,2013-01-08 22:22:00,
2013-01-08 15:32:00,34.0,18.0,-100.00,West,266,4.0,14.0,52,0.00,,,0.00,,2013-01-08 22:32:00,
2013-01-08 15:42:00,34.0,18.0,-100.00,West,266,4.0,14.0,52,0.00,,,0.00,,2013-01-08 22:42:00,
2013-01-08 15:52:00,34.0,18.0,-100.00,West,266,4.0,14.0,52,0.00,,,0.00,,2013-01-08 22:52:00,
2013-01-08 16:22:00,34.0,21.0,-100.00,East,95,2.0,12.0,59,0.00,,,0.00,,2013-01-08 23:22:00,
2013-01-08 16:32:00,34.0,21.0,-100.00,East,95,2.0,12.0,59,0.00,,,0.00,,2013-01-08 23:32:00,
2013-01-08 16:42:00,34.0,21.0,-100.00,East,95,2.0,12.0,59,0.00,,,0.00,,2013-01-08 23:42:00,
2013-01-08 16:52:00,34.0,21.0,-100.00,East,95,2.0,12.0,59,0.00,,,0.00,,2013-01-08 23:52:00,
2013-01-08 17:22:00,35.0,24.0,-100.00,SW,220,2.0,11.0,63,0.00,,,0.00,,2013-01-09 00:22:00,
2013-01-08 17:32:00,35.0,24.0,-100.00,SW,220,2.0,11.0,63,0.00,,,0.00,,2013-01-09 00:32:00,
2013-01-08 17:42:00,35.0,24.0,-100.00,SW,220,2.0,11.0,63,0.00,,,0.00,,2013-01-09 00:42:00,
2013-01-08 17:52:00,35.0,24.0,-100.00,SW,220,2.0,11.0,63,0.00,,,0.00,,2013-01-09 00:52:00,
2013-01-08 18:22:00,34.0,26.0,-100.00,SSW,207,3.0,13.0,71,0.00,,,0.00,,2013-01-09 01:22:00,
2013-01-08 18:32:00,34.0,26.0,-100.00,SSW,207,3.0,13.0,71,0.00,,,0.00,,2013-01-09 01:32:00,
2013-01-08 18:42:00,34.0,26.0,-100.00,SSW,207,3.0,13.0,71,0.00,,,0.00,,2013-01-09 01:42:00,
2013-01-08 18:52:00,34.0,26.0,-100.00,SSW,207,3.0,13.0,71,0.00,,,0.00,,2013-01-09 01:52:00,
2013-01-08 19:22:00,35.0,27.0,-100.00,South,188,5.0,13.0,72,0.00,,,0.00,,2013-01-09 02:22:00,
2013-01-08 19:32:00,35.0,27.0,-100.00,South,188,5.0,13.0,72,0.00,,,0.00,,2013-01-09 02:32:00,
2013-01-08 19:42:00,35.0,27.0,-100.00,South,188,5.0,13.0,72,0.00,,,0.00,,2013-01-09 02:42:00,
2013-01-08 19:52:00,35.0,27.0,-100.00,South,188,5.0,13.0,72,0.00,,,0.00,,2013-01-09 02:52:00,
2013-01-08 20:22:00,38.0,28.0,-100.00,WSW,246,4.0,19.0,66,0.00,,,0.00,,2013-01-09 03:22:00,
2013-01-08 20:33:00,38.0,28.0,-100.00,WSW,246,4.0,19.0,66,0.00,,,0.00,,2013-01-09 03:33:00,
2013-01-08 21:22:00,37.0,26.0,-100.00,North,359,4.0,16.0,65,0.00,,,0.00,,2013-01-09 04:22:00,
2013-01-08 21:32:00,37.0,26.0,-100.00,North,359,4.0,16.0,65,0.00,,,0.00,,2013-01-09 04:32:00,
2013-01-08 21:42:00,37.0,26.0,-100.00,North,359,4.0,16.0,65,0.00,,,0.00,,2013-01-09 04:42:00,
2013-01-08 21:52:00,37.0,26.0,-100.00,North,359,4.0,16.0,65,0.00,,,0.00,,2013-01-09 04:52:00,
2013-01-08 22:22:00,39.0,28.0,-100.00,ENE,67,6.0,19.0,65,0.00,,,0.00,,2013-01-09 05:22:00,
2013-01-08 22:33:00,39.0,28.0,-100.00,ENE,67,6.0,19.0,65,0.00,,,0.00,,2013-01-09 05:33:00,
2013-01-08 22:42:00,39.0,28.0,-100.00,ENE,67,6.0,19.0,65,0.00,,,0.00,,2013-01-09 05:42:00,
2013-01-08 22:52:00,39.0,28.0,-100.00,ENE,67,6.0,19.0,65,0.00,,,0.00,,2013-01-09 05:52:00,
2013-01-08 23:22:00,38.0,27.0,-100.00,West,266,5.0,19.0,64,0.00,,,0.00,,2013-01-09 06:22:00,
2013-01-08 23:32:00,38.0,27.0,-100.00,West,266,5.0,19.0,64,0.00,,,0.00,,2013-01-09 06:32:00,
2013-01-08 23:42:00,38.0,27.0,-100.00,West,266,5.0,19.0,64,0.00,,,0.00,,2013-01-09 06:42:00,
2013-01-08 23:52:00,38.0,27.0,-100.00,West,266,5.0,19.0,64,0.00,,,0.00,,2013-01-09 06:52:00,